CYQV

Yorkton Municipal Airport

Yorkton, Saskatchewan, Canada
METAR CYQV 181421Z AUTO 26004KT 6SM BR CLR 17/16 A2989 RMK SLP125 DENSITY ALT 2200FT
Observed Flight Rules
Aug-18 @ 14:21 UTC (30 minutes ago) Visual Flight Rules
Wind Visibility Clouds Conditions
260° at 4 knots 6 miles
  • Clear skies
  • Mist
Temperatures Readings
Current 17°C / 63°F
Dewpoint 16°C / 61°F
Humidity 94%
Altimeter 29.89" Hg
Pressure 1012.5 hPa
Elevation 498
METAR CYQV 181421Z AUTO 26004KT 6SM BR CLR 17/16 A2989 RMK SLP125 DENSITY ALT 2200FT
Observed Flight Rules
Aug-18 @ 14:21 UTC
(30 minutes ago)
VFR
Wind Visibility
260° at 4 knots 6 miles
Clouds
  • Clear skies
Conditions
  • Mist
Temperature Dewpoint
17°C / 63°F 16°C / 61°F
Humidity Altimeter Pressure
94% 29.89" Hg 1012.5 hPa